sensor_id;sensor_type;location;lat;lon;timestamp;pressure;altitude;pressure_sealevel;temperature;humidity
59435;BME280;45241;49.768;8.636;2022-11-20T00:00:54;99763.84;;;6.94;96.51
59435;BME280;45241;49.768;8.636;2022-11-20T00:03:20;99757.50;;;6.95;96.91
59435;BME280;45241;49.768;8.636;2022-11-20T00:05:45;99757.41;;;7.11;95.87
59435;BME280;45241;49.768;8.636;2022-11-20T00:08:10;99755.38;;;6.90;96.83
59435;BME280;45241;49.768;8.636;2022-11-20T00:10:36;99759.41;;;6.63;96.70
59435;BME280;45241;49.768;8.636;2022-11-20T00:13:02;99757.63;;;6.56;100.00
59435;BME280;45241;49.768;8.636;2022-11-20T00:15:27;99756.22;;;6.68;97.66
59435;BME280;45241;49.768;8.636;2022-11-20T00:17:52;99747.94;;;6.86;98.71
59435;BME280;45241;49.768;8.636;2022-11-20T00:20:17;99750.41;;;6.87;99.60
59435;BME280;45241;49.768;8.636;2022-11-20T00:22:42;99757.31;;;6.59;98.39
59435;BME280;45241;49.768;8.636;2022-11-20T00:25:08;99756.72;;;6.71;98.58
59435;BME280;45241;49.768;8.636;2022-11-20T00:27:33;99757.84;;;6.23;100.00
59435;BME280;45241;49.768;8.636;2022-11-20T00:29:58;99759.22;;;6.19;100.00
59435;BME280;45241;49.768;8.636;2022-11-20T00:32:23;99748.94;;;6.62;100.00
59435;BME280;45241;49.768;8.636;2022-11-20T00:34:48;99759.00;;;6.52;100.00
59435;BME280;45241;49.768;8.636;2022-11-20T00:37:14;99751.34;;;5.47;100.00
59435;BME280;45241;49.768;8.636;2022-11-20T00:39:39;99761.97;;;5.56;100.00
59435;BME280;45241;49.768;8.636;2022-11-20T00:42:04;99762.13;;;5.54;100.00
59435;BME280;45241;49.768;8.636;2022-11-20T00:44:29;99759.84;;;5.43;100.00
59435;BME280;45241;49.768;8.636;2022-11-20T00:46:55;99750.66;;;5.53;100.00
59435;BME280;45241;49.768;8.636;2022-11-20T00:49:20;99747.44;;;6.36;100.00
59435;BME280;45241;49.768;8.636;2022-11-20T00:51:45;99740.22;;;6.68;100.00
59435;BME280;45241;49.768;8.636;2022-11-20T00:54:10;99734.22;;;6.74;100.00
59435;BME280;45241;49.768;8.636;2022-11-20T00:56:35;99734.72;;;6.69;100.00
59435;BME280;45241;49.768;8.636;2022-11-20T00:59:01;99736.31;;;5.71;100.00
59435;BME280;45241;49.768;8.636;2022-11-20T01:01:26;99742.75;;;5.84;100.00
59435;BME280;45241;49.768;8.636;2022-11-20T01:03:53;99746.66;;;5.49;100.00
59435;BME280;45241;49.768;8.636;2022-11-20T01:06:20;99747.31;;;5.60;100.00
59435;BME280;45241;49.768;8.636;2022-11-20T01:08:46;99745.34;;;5.53;100.00
59435;BME280;45241;49.768;8.636;2022-11-20T01:11:18;99746.59;;;6.13;100.00
59435;BME280;45241;49.768;8.636;2022-11-20T01:13:45;99741.09;;;6.14;100.00
59435;BME280;45241;49.768;8.636;2022-11-20T01:16:15;99738.22;;;5.93;100.00
59435;BME280;45241;49.768;8.636;2022-11-20T01:18:41;99742.25;;;6.43;100.00
59435;BME280;45241;49.768;8.636;2022-11-20T01:21:08;99736.16;;;6.03;100.00
59435;BME280;45241;49.768;8.636;2022-11-20T01:23:34;99743.88;;;5.43;100.00
59435;BME280;45241;49.768;8.636;2022-11-20T01:26:04;99742.41;;;5.40;100.00
59435;BME280;45241;49.768;8.636;2022-11-20T01:28:30;99741.16;;;5.67;100.00
59435;BME280;45241;49.768;8.636;2022-11-20T01:30:55;99748.44;;;5.73;100.00
59435;BME280;45241;49.768;8.636;2022-11-20T01:33:20;99749.44;;;5.72;100.00
59435;BME280;45241;49.768;8.636;2022-11-20T01:35:45;99749.41;;;6.20;100.00
59435;BME280;45241;49.768;8.636;2022-11-20T01:38:11;99742.81;;;5.68;100.00
59435;BME280;45241;49.768;8.636;2022-11-20T01:40:36;99747.06;;;6.17;100.00
59435;BME280;45241;49.768;8.636;2022-11-20T01:43:09;99750.47;;;6.02;100.00
59435;BME280;45241;49.768;8.636;2022-11-20T01:48:13;99746.16;;;6.55;100.00
59435;BME280;45241;49.768;8.636;2022-11-20T01:50:38;99739.06;;;6.70;100.00
59435;BME280;45241;49.768;8.636;2022-11-20T01:53:05;99742.97;;;6.60;100.00
59435;BME280;45241;49.768;8.636;2022-11-20T01:55:36;99746.03;;;6.49;100.00
59435;BME280;45241;49.768;8.636;2022-11-20T01:58:04;99746.63;;;6.36;100.00
59435;BME280;45241;49.768;8.636;2022-11-20T02:00:29;99742.41;;;5.40;100.00
59435;BME280;45241;49.768;8.636;2022-11-20T02:02:56;99745.91;;;6.19;100.00
59435;BME280;45241;49.768;8.636;2022-11-20T02:05:24;99742.00;;;6.53;100.00
59435;BME280;45241;49.768;8.636;2022-11-20T02:07:51;99732.78;;;6.63;99.47
59435;BME280;45241;49.768;8.636;2022-11-20T02:10:17;99730.78;;;6.65;99.77
59435;BME280;45241;49.768;8.636;2022-11-20T02:12:43;99727.47;;;6.63;99.15
59435;BME280;45241;49.768;8.636;2022-11-20T02:15:27;99733.50;;;6.03;100.00
59435;BME280;45241;49.768;8.636;2022-11-20T02:17:52;99727.41;;;6.49;100.00
59435;BME280;45241;49.768;8.636;2022-11-20T02:20:18;99713.78;;;6.66;100.00
59435;BME280;45241;49.768;8.636;2022-11-20T02:22:47;99719.94;;;6.21;100.00
59435;BME280;45241;49.768;8.636;2022-11-20T02:25:15;99723.44;;;6.45;100.00
59435;BME280;45241;49.768;8.636;2022-11-20T02:27:41;99725.75;;;5.38;100.00
59435;BME280;45241;49.768;8.636;2022-11-20T02:30:07;99727.41;;;5.39;100.00
59435;BME280;45241;49.768;8.636;2022-11-20T02:32:36;99713.84;;;5.81;100.00
59435;BME280;45241;49.768;8.636;2022-11-20T02:37:45;99718.91;;;5.60;100.00
59435;BME280;45241;49.768;8.636;2022-11-20T02:40:12;99723.47;;;5.82;100.00
59435;BME280;45241;49.768;8.636;2022-11-20T02:42:38;99723.69;;;6.35;100.00
59435;BME280;45241;49.768;8.636;2022-11-20T02:45:04;99718.72;;;6.32;100.00
59435;BME280;45241;49.768;8.636;2022-11-20T02:47:29;99716.34;;;6.60;100.00
59435;BME280;45241;49.768;8.636;2022-11-20T02:49:54;99710.63;;;5.55;100.00
59435;BME280;45241;49.768;8.636;2022-11-20T02:52:20;99714.59;;;5.51;100.00
59435;BME280;45241;49.768;8.636;2022-11-20T02:54:45;99716.78;;;6.18;100.00
59435;BME280;45241;49.768;8.636;2022-11-20T02:57:10;99709.53;;;5.25;100.00
59435;BME280;45241;49.768;8.636;2022-11-20T02:59:35;99715.50;;;5.74;100.00
59435;BME280;45241;49.768;8.636;2022-11-20T03:02:00;99714.97;;;6.18;100.00
59435;BME280;45241;49.768;8.636;2022-11-20T03:04:26;99716.69;;;6.03;100.00
59435;BME280;45241;49.768;8.636;2022-11-20T03:06:51;99719.97;;;6.44;100.00
59435;BME280;45241;49.768;8.636;2022-11-20T03:09:16;99719.28;;;6.65;100.00
59435;BME280;45241;49.768;8.636;2022-11-20T03:11:41;99713.78;;;5.90;100.00
59435;BME280;45241;49.768;8.636;2022-11-20T03:14:06;99721.63;;;5.36;100.00
59435;BME280;45241;49.768;8.636;2022-11-20T03:16:31;99727.50;;;5.15;100.00
59435;BME280;45241;49.768;8.636;2022-11-20T03:18:57;99723.56;;;5.58;100.00
59435;BME280;45241;49.768;8.636;2022-11-20T03:21:23;99733.75;;;5.86;100.00
59435;BME280;45241;49.768;8.636;2022-11-20T03:23:48;99721.03;;;5.65;100.00
59435;BME280;45241;49.768;8.636;2022-11-20T03:26:20;99728.06;;;5.89;100.00
59435;BME280;45241;49.768;8.636;2022-11-20T03:28:47;99721.31;;;5.78;100.00
59435;BME280;45241;49.768;8.636;2022-11-20T03:31:13;99714.41;;;5.61;100.00
59435;BME280;45241;49.768;8.636;2022-11-20T03:33:39;99719.59;;;5.54;100.00
59435;BME280;45241;49.768;8.636;2022-11-20T03:36:05;99726.22;;;5.50;100.00
59435;BME280;45241;49.768;8.636;2022-11-20T03:38:31;99725.94;;;5.84;100.00
59435;BME280;45241;49.768;8.636;2022-11-20T03:41:00;99724.75;;;5.95;100.00
59435;BME280;45241;49.768;8.636;2022-11-20T03:43:25;99724.44;;;6.43;100.00
59435;BME280;45241;49.768;8.636;2022-11-20T03:45:51;99729.09;;;5.40;100.00
59435;BME280;45241;49.768;8.636;2022-11-20T03:48:16;99727.34;;;5.64;100.00
59435;BME280;45241;49.768;8.636;2022-11-20T03:50:42;99725.78;;;6.39;100.00
59435;BME280;45241;49.768;8.636;2022-11-20T03:53:07;99728.09;;;6.42;97.54
59435;BME280;45241;49.768;8.636;2022-11-20T03:55:32;99723.59;;;6.43;100.00
59435;BME280;45241;49.768;8.636;2022-11-20T03:57:57;99722.28;;;5.85;100.00
59435;BME280;45241;49.768;8.636;2022-11-20T04:00:22;99722.66;;;5.18;100.00
59435;BME280;45241;49.768;8.636;2022-11-20T04:02:47;99728.72;;;5.91;100.00
59435;BME280;45241;49.768;8.636;2022-11-20T04:05:13;99716.34;;;5.75;100.00
59435;BME280;45241;49.768;8.636;2022-11-20T04:07:38;99724.19;;;6.30;100.00
59435;BME280;45241;49.768;8.636;2022-11-20T04:10:03;99707.03;;;6.56;100.00
59435;BME280;45241;49.768;8.636;2022-11-20T04:12:31;99713.88;;;6.58;99.55
59435;BME280;45241;49.768;8.636;2022-11-20T04:14:56;99712.34;;;5.79;100.00
59435;BME280;45241;49.768;8.636;2022-11-20T04:17:21;99713.78;;;6.43;100.00
59435;BME280;45241;49.768;8.636;2022-11-20T04:19:46;99719.09;;;6.21;100.00
59435;BME280;45241;49.768;8.636;2022-11-20T04:22:12;99708.84;;;6.09;100.00
59435;BME280;45241;49.768;8.636;2022-11-20T04:24:37;99701.88;;;6.54;98.84
59435;BME280;45241;49.768;8.636;2022-11-20T04:27:03;99690.78;;;6.51;100.00
59435;BME280;45241;49.768;8.636;2022-11-20T04:29:28;99697.78;;;6.66;99.39
59435;BME280;45241;49.768;8.636;2022-11-20T04:31:53;99679.88;;;6.83;97.77
59435;BME280;45241;49.768;8.636;2022-11-20T04:34:18;99683.38;;;6.15;99.32
59435;BME280;45241;49.768;8.636;2022-11-20T04:36:44;99680.94;;;6.51;97.77
59435;BME280;45241;49.768;8.636;2022-11-20T04:39:12;99686.31;;;6.66;97.95
59435;BME280;45241;49.768;8.636;2022-11-20T04:41:39;99693.50;;;5.89;100.00
59435;BME280;45241;49.768;8.636;2022-11-20T04:44:05;99687.28;;;5.65;100.00
59435;BME280;45241;49.768;8.636;2022-11-20T04:46:31;99684.03;;;6.40;100.00
59435;BME280;45241;49.768;8.636;2022-11-20T04:48:57;99678.84;;;6.47;100.00
59435;BME280;45241;49.768;8.636;2022-11-20T04:51:22;99677.19;;;6.46;100.00
59435;BME280;45241;49.768;8.636;2022-11-20T04:53:47;99679.53;;;6.63;99.28
59435;BME280;45241;49.768;8.636;2022-11-20T04:56:12;99682.47;;;6.68;98.86
59435;BME280;45241;49.768;8.636;2022-11-20T04:58:38;99683.19;;;5.54;100.00
59435;BME280;45241;49.768;8.636;2022-11-20T05:01:07;99683.50;;;5.04;100.00
59435;BME280;45241;49.768;8.636;2022-11-20T05:03:33;99686.13;;;5.20;100.00
59435;BME280;45241;49.768;8.636;2022-11-20T05:06:02;99685.16;;;5.92;100.00
59435;BME280;45241;49.768;8.636;2022-11-20T05:08:28;99687.06;;;5.36;100.00
59435;BME280;45241;49.768;8.636;2022-11-20T05:10:53;99681.13;;;6.27;100.00
59435;BME280;45241;49.768;8.636;2022-11-20T05:13:18;99680.16;;;5.97;100.00
59435;BME280;45241;49.768;8.636;2022-11-20T05:15:43;99679.25;;;6.58;100.00
59435;BME280;45241;49.768;8.636;2022-11-20T05:18:08;99680.94;;;6.51;100.00
59435;BME280;45241;49.768;8.636;2022-11-20T05:20:33;99685.44;;;6.73;99.36
59435;BME280;45241;49.768;8.636;2022-11-20T05:23:01;99691.91;;;6.33;100.00
59435;BME280;45241;49.768;8.636;2022-11-20T05:25:26;99687.81;;;6.23;100.00
59435;BME280;45241;49.768;8.636;2022-11-20T05:27:51;99681.06;;;6.58;100.00
59435;BME280;45241;49.768;8.636;2022-11-20T05:30:16;99680.81;;;6.67;99.43
59435;BME280;45241;49.768;8.636;2022-11-20T05:32:41;99663.31;;;6.88;98.80
59435;BME280;45241;49.768;8.636;2022-11-20T05:35:07;99669.25;;;6.75;99.10
59435;BME280;45241;49.768;8.636;2022-11-20T05:37:32;99677.25;;;6.75;99.99
59435;BME280;45241;49.768;8.636;2022-11-20T05:39:57;99682.59;;;6.29;100.00
59435;BME280;45241;49.768;8.636;2022-11-20T05:42:23;99682.59;;;6.06;100.00
59435;BME280;45241;49.768;8.636;2022-11-20T05:45:00;99675.50;;;5.12;100.00
59435;BME280;45241;49.768;8.636;2022-11-20T05:47:27;99686.13;;;5.12;100.00
59435;BME280;45241;49.768;8.636;2022-11-20T05:49:52;99686.78;;;6.01;100.00
59435;BME280;45241;49.768;8.636;2022-11-20T05:52:17;99680.50;;;5.63;100.00
59435;BME280;45241;49.768;8.636;2022-11-20T05:54:42;99676.09;;;5.39;100.00
59435;BME280;45241;49.768;8.636;2022-11-20T05:57:08;99669.00;;;6.24;100.00
59435;BME280;45241;49.768;8.636;2022-11-20T05:59:33;99666.16;;;6.49;100.00
59435;BME280;45241;49.768;8.636;2022-11-20T06:01:58;99667.53;;;5.68;100.00
59435;BME280;45241;49.768;8.636;2022-11-20T06:04:23;99656.94;;;6.36;100.00
59435;BME280;45241;49.768;8.636;2022-11-20T06:06:49;99656.28;;;6.57;100.00
59435;BME280;45241;49.768;8.636;2022-11-20T06:09:14;99649.25;;;6.79;100.00
59435;BME280;45241;49.768;8.636;2022-11-20T06:11:39;99656.97;;;6.74;99.96
59435;BME280;45241;49.768;8.636;2022-11-20T06:14:04;99650.19;;;6.86;98.97
59435;BME280;45241;49.768;8.636;2022-11-20T06:16:29;99653.22;;;6.98;97.94
59435;BME280;45241;49.768;8.636;2022-11-20T06:18:55;99662.09;;;6.38;99.35
59435;BME280;45241;49.768;8.636;2022-11-20T06:21:21;99656.81;;;5.45;100.00
59435;BME280;45241;49.768;8.636;2022-11-20T06:23:46;99662.22;;;5.60;100.00
59435;BME280;45241;49.768;8.636;2022-11-20T06:26:16;99671.09;;;5.44;100.00
59435;BME280;45241;49.768;8.636;2022-11-20T06:28:42;99672.88;;;6.45;100.00
59435;BME280;45241;49.768;8.636;2022-11-20T06:31:07;99672.22;;;5.58;100.00
59435;BME280;45241;49.768;8.636;2022-11-20T06:33:32;99677.25;;;5.44;100.00
59435;BME280;45241;49.768;8.636;2022-11-20T06:35:58;99675.69;;;5.58;100.00
59435;BME280;45241;49.768;8.636;2022-11-20T06:38:24;99677.16;;;5.69;100.00
59435;BME280;45241;49.768;8.636;2022-11-20T06:40:49;99677.00;;;5.62;100.00
59435;BME280;45241;49.768;8.636;2022-11-20T06:43:15;99674.13;;;5.72;100.00
59435;BME280;45241;49.768;8.636;2022-11-20T06:45:40;99670.25;;;6.13;100.00
59435;BME280;45241;49.768;8.636;2022-11-20T06:48:05;99661.75;;;6.56;100.00
59435;BME280;45241;49.768;8.636;2022-11-20T06:50:30;99659.69;;;6.66;100.00
59435;BME280;45241;49.768;8.636;2022-11-20T06:52:55;99660.69;;;6.65;100.00
59435;BME280;45241;49.768;8.636;2022-11-20T06:55:21;99666.16;;;6.71;100.00
59435;BME280;45241;49.768;8.636;2022-11-20T06:57:46;99668.97;;;6.01;100.00
59435;BME280;45241;49.768;8.636;2022-11-20T07:00:11;99674.03;;;6.42;100.00
59435;BME280;45241;49.768;8.636;2022-11-20T07:02:36;99658.78;;;6.73;100.00
59435;BME280;45241;49.768;8.636;2022-11-20T07:05:02;99669.34;;;5.67;100.00
59435;BME280;45241;49.768;8.636;2022-11-20T07:07:27;99671.91;;;5.83;100.00
59435;BME280;45241;49.768;8.636;2022-11-20T07:09:52;99664.25;;;5.49;100.00
59435;BME280;45241;49.768;8.636;2022-11-20T07:12:17;99670.22;;;5.60;100.00
59435;BME280;45241;49.768;8.636;2022-11-20T07:14:42;99673.09;;;5.81;100.00
59435;BME280;45241;49.768;8.636;2022-11-20T07:17:08;99671.91;;;6.37;100.00
59435;BME280;45241;49.768;8.636;2022-11-20T07:19:33;99675.38;;;5.92;100.00
59435;BME280;45241;49.768;8.636;2022-11-20T07:21:58;99676.72;;;5.88;100.00
59435;BME280;45241;49.768;8.636;2022-11-20T07:24:23;99674.00;;;5.96;100.00
59435;BME280;45241;49.768;8.636;2022-11-20T07:26:49;99677.19;;;5.61;100.00
59435;BME280;45241;49.768;8.636;2022-11-20T07:29:14;99685.97;;;6.23;100.00
59435;BME280;45241;49.768;8.636;2022-11-20T07:31:41;99682.13;;;6.49;100.00
59435;BME280;45241;49.768;8.636;2022-11-20T07:34:06;99686.09;;;6.07;100.00
59435;BME280;45241;49.768;8.636;2022-11-20T07:36:31;99688.50;;;6.17;100.00
59435;BME280;45241;49.768;8.636;2022-11-20T07:38:57;99691.03;;;6.18;100.00
59435;BME280;45241;49.768;8.636;2022-11-20T07:41:22;99704.50;;;5.86;100.00
59435;BME280;45241;49.768;8.636;2022-11-20T07:43:47;99709.16;;;6.14;100.00
59435;BME280;45241;49.768;8.636;2022-11-20T07:46:12;99702.00;;;5.53;100.00
59435;BME280;45241;49.768;8.636;2022-11-20T07:48:37;99700.31;;;6.22;100.00
59435;BME280;45241;49.768;8.636;2022-11-20T07:51:03;99707.56;;;6.05;100.00
59435;BME280;45241;49.768;8.636;2022-11-20T07:53:28;99696.81;;;6.22;100.00
59435;BME280;45241;49.768;8.636;2022-11-20T07:55:53;99704.63;;;6.46;100.00
59435;BME280;45241;49.768;8.636;2022-11-20T07:58:19;99706.53;;;6.60;100.00
59435;BME280;45241;49.768;8.636;2022-11-20T08:00:44;99713.59;;;6.22;100.00
59435;BME280;45241;49.768;8.636;2022-11-20T08:03:10;99717.88;;;5.69;100.00
59435;BME280;45241;49.768;8.636;2022-11-20T08:05:35;99734.75;;;5.84;100.00
59435;BME280;45241;49.768;8.636;2022-11-20T08:08:00;99731.59;;;5.34;100.00
59435;BME280;45241;49.768;8.636;2022-11-20T08:10:25;99734.84;;;5.60;100.00
59435;BME280;45241;49.768;8.636;2022-11-20T08:12:51;99736.66;;;6.07;100.00
59435;BME280;45241;49.768;8.636;2022-11-20T08:15:35;99731.72;;;6.50;100.00
59435;BME280;45241;49.768;8.636;2022-11-20T08:18:02;99734.06;;;6.67;100.00
59435;BME280;45241;49.768;8.636;2022-11-20T08:20:27;99737.69;;;5.98;100.00
59435;BME280;45241;49.768;8.636;2022-11-20T08:22:57;99736.69;;;6.76;100.00
59435;BME280;45241;49.768;8.636;2022-11-20T08:25:22;99748.00;;;6.55;100.00
59435;BME280;45241;49.768;8.636;2022-11-20T08:27:47;99745.03;;;6.72;100.00
59435;BME280;45241;49.768;8.636;2022-11-20T08:30:12;99737.22;;;6.48;100.00
59435;BME280;45241;49.768;8.636;2022-11-20T08:32:38;99735.38;;;6.26;100.00
59435;BME280;45241;49.768;8.636;2022-11-20T08:35:03;99745.06;;;6.19;100.00
59435;BME280;45241;49.768;8.636;2022-11-20T08:37:28;99749.25;;;6.44;100.00
59435;BME280;45241;49.768;8.636;2022-11-20T08:39:53;99748.91;;;6.70;100.00
59435;BME280;45241;49.768;8.636;2022-11-20T08:42:21;99756.44;;;6.04;100.00
59435;BME280;45241;49.768;8.636;2022-11-20T08:44:47;99752.50;;;6.77;100.00
59435;BME280;45241;49.768;8.636;2022-11-20T08:47:12;99743.72;;;6.68;100.00
59435;BME280;45241;49.768;8.636;2022-11-20T08:49:37;99745.19;;;6.94;100.00
59435;BME280;45241;49.768;8.636;2022-11-20T08:52:02;99750.00;;;6.53;100.00
59435;BME280;45241;49.768;8.636;2022-11-20T08:54:27;99758.44;;;6.02;100.00
59435;BME280;45241;49.768;8.636;2022-11-20T08:56:52;99759.75;;;6.37;100.00
59435;BME280;45241;49.768;8.636;2022-11-20T08:59:18;99744.91;;;7.12;100.00
59435;BME280;45241;49.768;8.636;2022-11-20T09:01:43;99741.97;;;7.21;100.00
59435;BME280;45241;49.768;8.636;2022-11-20T09:04:08;99750.50;;;7.17;100.00
59435;BME280;45241;49.768;8.636;2022-11-20T09:06:33;99740.97;;;7.22;100.00
59435;BME280;45241;49.768;8.636;2022-11-20T09:08:59;99748.88;;;7.30;100.00
59435;BME280;45241;49.768;8.636;2022-11-20T09:11:24;99739.47;;;7.20;100.00
59435;BME280;45241;49.768;8.636;2022-11-20T09:13:49;99731.09;;;6.70;100.00
59435;BME280;45241;49.768;8.636;2022-11-20T09:16:15;99735.47;;;7.24;100.00
59435;BME280;45241;49.768;8.636;2022-11-20T09:18:40;99724.44;;;7.27;100.00
59435;BME280;45241;49.768;8.636;2022-11-20T09:21:06;99742.78;;;7.22;100.00
59435;BME280;45241;49.768;8.636;2022-11-20T09:23:32;99728.88;;;7.49;100.00
59435;BME280;45241;49.768;8.636;2022-11-20T09:25:58;99729.25;;;7.61;99.58
59435;BME280;45241;49.768;8.636;2022-11-20T09:28:26;99743.50;;;6.78;100.00
59435;BME280;45241;49.768;8.636;2022-11-20T09:30:51;99740.91;;;6.47;100.00
59435;BME280;45241;49.768;8.636;2022-11-20T09:33:16;99749.06;;;6.68;100.00
59435;BME280;45241;49.768;8.636;2022-11-20T09:35:42;99745.25;;;6.40;100.00
59435;BME280;45241;49.768;8.636;2022-11-20T09:38:08;99756.94;;;6.62;100.00
59435;BME280;45241;49.768;8.636;2022-11-20T09:40:35;99756.75;;;6.86;100.00
59435;BME280;45241;49.768;8.636;2022-11-20T09:43:15;99745.00;;;6.95;100.00
59435;BME280;45241;49.768;8.636;2022-11-20T09:50:45;99752.25;;;7.10;100.00
59435;BME280;45241;49.768;8.636;2022-11-20T09:55:49;99752.91;;;6.89;100.00
59435;BME280;45241;49.768;8.636;2022-11-20T09:58:18;99754.72;;;6.42;100.00
59435;BME280;45241;49.768;8.636;2022-11-20T10:00:47;99747.03;;;6.93;100.00
59435;BME280;45241;49.768;8.636;2022-11-20T10:03:14;99746.75;;;6.65;100.00
59435;BME280;45241;49.768;8.636;2022-11-20T10:05:45;99741.84;;;6.54;100.00
59435;BME280;45241;49.768;8.636;2022-11-20T10:08:16;99747.34;;;6.53;100.00
59435;BME280;45241;49.768;8.636;2022-11-20T10:10:44;99750.00;;;6.53;100.00
59435;BME280;45241;49.768;8.636;2022-11-20T10:13:15;99741.19;;;6.75;100.00
59435;BME280;45241;49.768;8.636;2022-11-20T10:18:33;99743.66;;;6.54;100.00
59435;BME280;45241;49.768;8.636;2022-11-20T10:21:08;99735.97;;;7.05;100.00
59435;BME280;45241;49.768;8.636;2022-11-20T10:28:48;99739.41;;;6.90;100.00
59435;BME280;45241;49.768;8.636;2022-11-20T10:31:35;99742.16;;;6.59;100.00
59435;BME280;45241;49.768;8.636;2022-11-20T10:34:03;99748.22;;;7.14;100.00
59435;BME280;45241;49.768;8.636;2022-11-20T10:36:33;99741.03;;;6.91;100.00
59435;BME280;45241;49.768;8.636;2022-11-20T10:39:03;99734.72;;;6.92;100.00
59435;BME280;45241;49.768;8.636;2022-11-20T10:41:34;99721.97;;;7.40;100.00
59435;BME280;45241;49.768;8.636;2022-11-20T10:44:15;99728.22;;;7.62;100.00
59435;BME280;45241;49.768;8.636;2022-11-20T10:47:01;99733.06;;;7.44;100.00
59435;BME280;45241;49.768;8.636;2022-11-20T10:49:26;99726.28;;;7.71;100.00
59435;BME280;45241;49.768;8.636;2022-11-20T10:51:58;99724.41;;;7.86;100.00
59435;BME280;45241;49.768;8.636;2022-11-20T10:56:51;99708.84;;;8.04;100.00
59435;BME280;45241;49.768;8.636;2022-11-20T10:59:27;99711.78;;;7.95;100.00
59435;BME280;45241;49.768;8.636;2022-11-20T11:01:57;99710.56;;;7.76;100.00
59435;BME280;45241;49.768;8.636;2022-11-20T11:04:40;99707.41;;;7.28;100.00
59435;BME280;45241;49.768;8.636;2022-11-20T11:07:12;99706.22;;;7.45;100.00
59435;BME280;45241;49.768;8.636;2022-11-20T11:09:39;99707.88;;;7.17;100.00
59435;BME280;45241;49.768;8.636;2022-11-20T11:12:07;99710.50;;;6.79;100.00
59435;BME280;45241;49.768;8.636;2022-11-20T11:14:41;99713.13;;;6.64;100.00
59435;BME280;45241;49.768;8.636;2022-11-20T11:17:17;99699.66;;;7.04;100.00
59435;BME280;45241;49.768;8.636;2022-11-20T11:19:43;99702.38;;;7.63;100.00
59435;BME280;45241;49.768;8.636;2022-11-20T11:22:10;99693.34;;;7.34;100.00
59435;BME280;45241;49.768;8.636;2022-11-20T11:24:43;99689.97;;;7.25;100.00
59435;BME280;45241;49.768;8.636;2022-11-20T11:27:16;99686.72;;;7.59;100.00
59435;BME280;45241;49.768;8.636;2022-11-20T11:29:42;99681.84;;;7.63;100.00
59435;BME280;45241;49.768;8.636;2022-11-20T11:32:28;99681.75;;;7.56;100.00
59435;BME280;45241;49.768;8.636;2022-11-20T11:34:59;99684.88;;;7.75;100.00
59435;BME280;45241;49.768;8.636;2022-11-20T11:37:25;99677.03;;;7.88;100.00
59435;BME280;45241;49.768;8.636;2022-11-20T11:39:53;99675.81;;;7.90;100.00
59435;BME280;45241;49.768;8.636;2022-11-20T11:42:18;99667.75;;;7.69;100.00
59435;BME280;45241;49.768;8.636;2022-11-20T11:44:45;99675.34;;;7.36;100.00
59435;BME280;45241;49.768;8.636;2022-11-20T11:47:30;99673.91;;;7.84;100.00
59435;BME280;45241;49.768;8.636;2022-11-20T11:50:07;99668.97;;;7.67;100.00
59435;BME280;45241;49.768;8.636;2022-11-20T11:55:31;99668.53;;;7.48;100.00
59435;BME280;45241;49.768;8.636;2022-11-20T12:00:29;99661.34;;;7.34;100.00
59435;BME280;45241;49.768;8.636;2022-11-20T12:05:30;99645.53;;;8.19;100.00
59435;BME280;45241;49.768;8.636;2022-11-20T12:08:05;99641.78;;;8.35;100.00
59435;BME280;45241;49.768;8.636;2022-11-20T12:13:04;99642.25;;;8.17;100.00
59435;BME280;45241;49.768;8.636;2022-11-20T12:15:34;99638.25;;;8.28;100.00
59435;BME280;45241;49.768;8.636;2022-11-20T12:17:59;99644.97;;;8.24;100.00
59435;BME280;45241;49.768;8.636;2022-11-20T12:20:26;99645.53;;;8.19;100.00
59435;BME280;45241;49.768;8.636;2022-11-20T12:23:00;99642.47;;;8.23;100.00
59435;BME280;45241;49.768;8.636;2022-11-20T12:25:27;99636.28;;;8.15;100.00
59435;BME280;45241;49.768;8.636;2022-11-20T12:30:29;99628.63;;;8.55;100.00
59435;BME280;45241;49.768;8.636;2022-11-20T12:38:22;99635.09;;;8.67;100.00
59435;BME280;45241;49.768;8.636;2022-11-20T12:43:37;99629.03;;;9.15;100.00
59435;BME280;45241;49.768;8.636;2022-11-20T12:49:09;99630.41;;;8.76;100.00
59435;BME280;45241;49.768;8.636;2022-11-20T12:51:57;99622.22;;;9.05;100.00
59435;BME280;45241;49.768;8.636;2022-11-20T13:02:27;99617.00;;;8.69;100.00
59435;BME280;45241;49.768;8.636;2022-11-20T13:07:39;99607.34;;;9.37;100.00
59435;BME280;45241;49.768;8.636;2022-11-20T13:10:05;99609.81;;;9.32;100.00
59435;BME280;45241;49.768;8.636;2022-11-20T13:12:44;99605.72;;;9.43;100.00
59435;BME280;45241;49.768;8.636;2022-11-20T13:15:20;99611.19;;;9.56;100.00
59435;BME280;45241;49.768;8.636;2022-11-20T13:17:50;99597.81;;;9.56;100.00
59435;BME280;45241;49.768;8.636;2022-11-20T13:20:17;99604.59;;;9.59;100.00
59435;BME280;45241;49.768;8.636;2022-11-20T13:22:46;99599.94;;;9.33;100.00
59435;BME280;45241;49.768;8.636;2022-11-20T13:25:22;99592.53;;;9.35;100.00
59435;BME280;45241;49.768;8.636;2022-11-20T13:27:47;99588.91;;;9.56;100.00
59435;BME280;45241;49.768;8.636;2022-11-20T13:30:15;99583.00;;;9.19;100.00
59435;BME280;45241;49.768;8.636;2022-11-20T13:32:49;99582.16;;;9.60;100.00
59435;BME280;45241;49.768;8.636;2022-11-20T13:35:23;99569.06;;;9.37;100.00
59435;BME280;45241;49.768;8.636;2022-11-20T13:37:48;99567.94;;;9.53;100.00
59435;BME280;45241;49.768;8.636;2022-11-20T13:40:24;99562.47;;;9.33;100.00
59435;BME280;45241;49.768;8.636;2022-11-20T13:45:22;99563.38;;;9.47;100.00
59435;BME280;45241;49.768;8.636;2022-11-20T13:47:48;99566.41;;;9.37;100.00
59435;BME280;45241;49.768;8.636;2022-11-20T13:50:14;99564.78;;;9.01;100.00
59435;BME280;45241;49.768;8.636;2022-11-20T13:52:52;99564.97;;;9.41;100.00
59435;BME280;45241;49.768;8.636;2022-11-20T13:55:36;99558.78;;;9.34;100.00
59435;BME280;45241;49.768;8.636;2022-11-20T13:58:15;99547.19;;;9.61;100.00
59435;BME280;45241;49.768;8.636;2022-11-20T14:00:55;99551.75;;;9.26;100.00
59435;BME280;45241;49.768;8.636;2022-11-20T14:03:22;99542.50;;;9.90;100.00